createdAt,value
2019-04-30T00:00:55.297Z,99.90
2019-04-30T00:03:38.730Z,99.90
2019-04-30T00:06:10.478Z,99.90
2019-04-30T00:08:39.475Z,99.90
2019-04-30T00:11:15.144Z,99.90
2019-04-30T00:13:50.227Z,99.90
2019-04-30T00:16:17.930Z,99.90
2019-04-30T00:18:57.107Z,99.90
2019-04-30T00:21:18.767Z,99.90
2019-04-30T00:23:50.744Z,99.90
2019-04-30T00:26:21.785Z,99.90
2019-04-30T00:28:52.827Z,99.90
2019-04-30T00:31:24.213Z,99.90
2019-04-30T00:33:57.778Z,99.90
2019-04-30T00:36:29.357Z,99.90
2019-04-30T00:38:55.561Z,99.90
2019-04-30T00:41:25.622Z,99.90
2019-04-30T00:43:57.440Z,99.90
2019-04-30T00:46:29.324Z,99.90
2019-04-30T00:49:09.387Z,99.90
2019-04-30T00:51:29.545Z,99.90
2019-04-30T00:53:58.736Z,99.90
2019-04-30T00:56:28.344Z,99.90
2019-04-30T00:59:02.704Z,99.90
2019-04-30T01:01:31.660Z,99.90
2019-04-30T01:04:27.898Z,99.90
2019-04-30T01:07:05.255Z,99.90
2019-04-30T01:09:35.441Z,99.90
2019-04-30T01:12:05.503Z,99.90
2019-04-30T01:14:34.618Z,99.90
2019-04-30T01:17:12.394Z,99.90
2019-04-30T01:19:51.116Z,99.90
2019-04-30T01:22:28.055Z,99.90
2019-04-30T01:24:56.497Z,99.90
2019-04-30T01:27:30.096Z,99.90
2019-04-30T01:30:08.675Z,99.90
2019-04-30T01:32:35.872Z,99.90
2019-04-30T01:35:08.870Z,99.90
2019-04-30T01:37:48.806Z,99.90
2019-04-30T01:40:22.104Z,99.90
2019-04-30T01:43:01.534Z,99.90
2019-04-30T01:45:35.341Z,99.90
2019-04-30T01:48:10.726Z,99.90
2019-04-30T01:50:42.035Z,99.90
2019-04-30T01:53:13.157Z,99.90
2019-04-30T01:55:43.290Z,99.90
2019-04-30T01:58:33.557Z,99.90
2019-04-30T02:01:16.305Z,99.90
2019-04-30T02:03:45.660Z,99.90
2019-04-30T02:06:19.574Z,99.90
2019-04-30T02:08:52.143Z,99.90
2019-04-30T02:11:24.882Z,99.90
2019-04-30T02:13:58.982Z,99.90
2019-04-30T02:16:29.409Z,99.90
2019-04-30T02:19:00.038Z,99.90
2019-04-30T02:21:30.043Z,99.90
2019-04-30T02:24:00.485Z,99.90
2019-04-30T02:26:30.911Z,99.90
2019-04-30T02:29:00.190Z,99.90
2019-04-30T02:31:30.962Z,99.90
2019-04-30T02:34:04.342Z,99.90
2019-04-30T02:36:49.977Z,99.90
2019-04-30T02:39:20.395Z,99.90
2019-04-30T02:41:51.292Z,99.90
2019-04-30T02:44:22.032Z,99.90
2019-04-30T02:46:52.041Z,99.90
2019-04-30T02:49:22.775Z,99.90
2019-04-30T02:51:53.643Z,99.90
2019-04-30T02:54:29.636Z,99.90
2019-04-30T02:57:02.041Z,99.90
2019-04-30T02:59:40.294Z,99.90
2019-04-30T03:02:11.473Z,99.90
2019-04-30T03:04:39.999Z,99.90
2019-04-30T03:07:09.805Z,99.90
2019-04-30T03:09:41.540Z,99.90
2019-04-30T03:12:13.582Z,99.90
2019-04-30T03:14:51.354Z,99.90
2019-04-30T03:17:22.468Z,99.90
2019-04-30T03:20:03.430Z,99.90
2019-04-30T03:22:33.860Z,99.90
2019-04-30T03:25:04.696Z,99.90
2019-04-30T03:27:42.223Z,99.90
2019-04-30T03:30:11.766Z,99.90
2019-04-30T03:32:42.845Z,99.90
2019-04-30T03:35:17.186Z,99.90
2019-04-30T03:37:46.167Z,99.90
2019-04-30T03:40:20.256Z,99.90
2019-04-30T03:42:53.997Z,99.90
2019-04-30T03:45:24.598Z,99.90
2019-04-30T03:47:55.025Z,99.90
2019-04-30T03:50:25.468Z,99.90
2019-04-30T03:52:56.118Z,99.90
2019-04-30T03:55:25.188Z,99.90
2019-04-30T03:57:54.200Z,99.90
2019-04-30T04:00:35.083Z,99.90
2019-04-30T04:03:10.075Z,99.90
2019-04-30T04:05:59.543Z,99.90
2019-04-30T04:08:30.388Z,99.90
2019-04-30T04:11:01.389Z,99.90
2019-04-30T04:13:36.791Z,99.90
2019-04-30T04:16:05.785Z,99.90
2019-04-30T04:18:40.024Z,99.90
2019-04-30T04:21:16.327Z,99.90
2019-04-30T04:23:44.555Z,99.90
2019-04-30T04:26:13.538Z,99.90
2019-04-30T04:29:01.486Z,99.90
2019-04-30T04:31:35.665Z,99.90
2019-04-30T04:34:04.874Z,99.90
2019-04-30T04:36:33.881Z,99.90
2019-04-30T04:39:05.827Z,99.90
2019-04-30T04:41:39.731Z,99.90
2019-04-30T04:44:12.613Z,99.90
2019-04-30T04:46:40.652Z,99.90
2019-04-30T04:49:09.722Z,99.90
2019-04-30T04:51:42.466Z,99.90
2019-04-30T04:54:10.960Z,99.90
2019-04-30T04:56:54.895Z,99.90
2019-04-30T04:59:26.449Z,99.90
2019-04-30T05:02:02.084Z,99.90
2019-04-30T05:04:39.993Z,99.90
2019-04-30T05:07:11.255Z,99.90
2019-04-30T05:09:41.561Z,99.90
2019-04-30T05:12:13.859Z,99.90
2019-04-30T05:14:49.174Z,99.90
2019-04-30T05:17:20.688Z,99.90
2019-04-30T05:19:52.860Z,99.90
2019-04-30T05:22:21.884Z,99.90
2019-04-30T05:24:55.257Z,99.90
2019-04-30T05:27:26.007Z,99.90
2019-04-30T05:29:54.912Z,99.90
2019-04-30T05:32:29.303Z,99.90
2019-04-30T05:34:58.754Z,99.90
2019-04-30T05:37:29.279Z,99.90
2019-04-30T05:40:01.018Z,99.90
2019-04-30T05:42:35.194Z,99.90
2019-04-30T05:45:09.287Z,99.90
2019-04-30T05:47:45.624Z,99.90
2019-04-30T05:50:15.217Z,99.90
2019-04-30T05:52:49.319Z,99.90
2019-04-30T05:55:24.528Z,99.90
2019-04-30T05:57:56.435Z,99.90
2019-04-30T06:00:24.194Z,99.90
2019-04-30T06:02:53.634Z,99.90
2019-04-30T06:05:22.897Z,99.90
2019-04-30T06:07:55.506Z,99.90
2019-04-30T06:10:39.667Z,99.90
2019-04-30T06:13:15.887Z,99.90
2019-04-30T06:16:04.742Z,99.90
2019-04-30T06:18:38.582Z,99.90
2019-04-30T06:21:10.098Z,99.90
2019-04-30T06:23:42.275Z,99.90
2019-04-30T06:26:14.856Z,99.90
2019-04-30T06:28:49.805Z,99.90
2019-04-30T06:31:31.925Z,99.90
2019-04-30T06:33:58.633Z,99.90
2019-04-30T06:36:35.135Z,99.90
2019-04-30T06:39:08.604Z,99.90
2019-04-30T06:41:36.256Z,99.90
2019-04-30T06:44:06.793Z,99.90
2019-04-30T06:46:43.228Z,99.90
2019-04-30T06:49:14.548Z,99.90
2019-04-30T06:51:43.505Z,99.90
2019-04-30T06:54:14.888Z,99.90
2019-04-30T06:56:56.069Z,99.90
2019-04-30T06:59:26.887Z,99.90
2019-04-30T07:01:59.013Z,99.90
2019-04-30T07:04:32.355Z,99.90
2019-04-30T07:07:08.980Z,99.90
2019-04-30T07:09:53.081Z,99.90
2019-04-30T07:12:27.094Z,99.90
2019-04-30T07:14:50.410Z,99.90
2019-04-30T07:17:21.175Z,99.90
2019-04-30T07:19:56.565Z,99.90
2019-04-30T07:22:36.611Z,99.90
2019-04-30T07:24:56.464Z,99.90
2019-04-30T07:27:34.351Z,99.90
2019-04-30T07:30:03.887Z,99.90
2019-04-30T07:32:40.433Z,99.90
2019-04-30T07:35:14.966Z,99.90
2019-04-30T07:37:54.662Z,99.90
2019-04-30T07:40:35.887Z,99.90
2019-04-30T07:43:06.079Z,99.90
2019-04-30T07:45:35.417Z,99.90
2019-04-30T07:48:05.125Z,99.90
2019-04-30T07:50:39.710Z,99.90
2019-04-30T07:53:11.731Z,99.90
2019-04-30T07:55:43.165Z,99.90
2019-04-30T07:58:12.427Z,99.90
2019-04-30T08:00:42.176Z,99.90
2019-04-30T08:03:40.045Z,99.90
2019-04-30T08:06:14.931Z,99.90
2019-04-30T08:08:50.647Z,99.90
2019-04-30T08:11:25.752Z,99.90
2019-04-30T08:13:54.444Z,99.90
2019-04-30T08:16:28.705Z,99.90
2019-04-30T08:19:00.596Z,99.90
2019-04-30T08:21:38.683Z,99.70
2019-04-30T08:24:12.344Z,98.90
2019-04-30T08:26:44.406Z,99.00
2019-04-30T08:29:16.068Z,98.60
2019-04-30T08:31:49.644Z,98.30
2019-04-30T08:34:33.784Z,99.10
2019-04-30T08:37:12.461Z,99.50
2019-04-30T08:39:36.409Z,98.40
2019-04-30T08:42:09.019Z,97.80
2019-04-30T08:44:39.521Z,98.50
2019-04-30T08:47:10.651Z,98.70
2019-04-30T08:49:42.686Z,98.10
2019-04-30T08:52:14.433Z,97.60
2019-04-30T08:54:46.036Z,95.90
2019-04-30T08:57:19.037Z,96.70
2019-04-30T08:59:51.386Z,96.70
2019-04-30T09:02:22.029Z,96.50
2019-04-30T09:04:52.764Z,96.60
2019-04-30T09:07:29.716Z,95.60
2019-04-30T09:10:04.533Z,96.10
2019-04-30T09:12:36.539Z,95.70
2019-04-30T09:15:11.542Z,96.10
2019-04-30T09:17:58.853Z,95.50
2019-04-30T09:20:19.879Z,94.60
2019-04-30T09:22:51.840Z,95.00
2019-04-30T09:25:28.696Z,95.00
2019-04-30T09:27:58.955Z,95.50
2019-04-30T09:30:29.982Z,95.20
2019-04-30T09:33:00.684Z,94.50
2019-04-30T09:35:32.203Z,95.00
2019-04-30T09:38:04.261Z,94.90
2019-04-30T09:40:35.117Z,94.50
2019-04-30T09:43:08.676Z,94.60
2019-04-30T09:45:44.270Z,94.60
2019-04-30T09:48:18.982Z,95.20
2019-04-30T09:50:50.915Z,95.80
2019-04-30T09:53:29.782Z,94.30
2019-04-30T09:55:59.601Z,94.90
2019-04-30T09:58:31.562Z,95.30
2019-04-30T10:01:06.505Z,95.30
2019-04-30T10:03:41.806Z,95.10
2019-04-30T10:06:14.424Z,95.60
2019-04-30T10:08:49.227Z,94.60
2019-04-30T10:11:22.240Z,94.40
2019-04-30T10:13:53.376Z,94.30
2019-04-30T10:16:26.884Z,94.80
2019-04-30T10:18:59.241Z,94.70
2019-04-30T10:21:31.205Z,94.60
2019-04-30T10:24:12.339Z,94.90
2019-04-30T10:26:38.316Z,94.90
2019-04-30T10:29:09.151Z,95.20
2019-04-30T10:31:43.059Z,95.00
2019-04-30T10:34:16.040Z,95.60
2019-04-30T10:36:49.451Z,93.80
2019-04-30T10:39:22.957Z,94.30
2019-04-30T10:41:58.481Z,95.10
2019-04-30T10:44:29.849Z,96.50
2019-04-30T10:47:01.766Z,95.70
2019-04-30T10:49:30.799Z,96.60
2019-04-30T10:52:01.167Z,95.50
2019-04-30T10:54:35.932Z,96.00
2019-04-30T10:57:05.539Z,96.60
2019-04-30T10:59:36.498Z,96.00
2019-04-30T11:02:09.074Z,96.30
2019-04-30T11:04:39.664Z,95.90
2019-04-30T11:07:09.285Z,96.80
2019-04-30T11:09:41.043Z,96.20
2019-04-30T11:12:13.128Z,96.60
2019-04-30T11:14:42.310Z,96.00
2019-04-30T11:17:24.642Z,97.20
2019-04-30T11:19:59.191Z,97.60
2019-04-30T11:22:34.288Z,96.30
2019-04-30T11:25:05.724Z,96.50
2019-04-30T11:27:40.798Z,96.50
2019-04-30T11:30:24.126Z,97.00
2019-04-30T11:32:52.464Z,97.10
2019-04-30T11:35:29.533Z,97.10
2019-04-30T11:38:01.116Z,97.60
2019-04-30T11:40:37.198Z,97.40
2019-04-30T11:43:04.066Z,97.70
2019-04-30T11:46:00.073Z,97.40
2019-04-30T11:48:33.331Z,97.80
2019-04-30T11:51:04.445Z,98.40
2019-04-30T11:53:36.133Z,98.20
2019-04-30T11:56:05.216Z,98.00
2019-04-30T11:58:38.869Z,97.90
2019-04-30T12:01:24.707Z,98.80
2019-04-30T12:03:55.236Z,98.90
2019-04-30T12:06:24.534Z,98.30
2019-04-30T12:08:59.516Z,98.80
2019-04-30T12:11:41.691Z,99.60
2019-04-30T12:14:13.450Z,99.90
2019-04-30T12:16:42.534Z,99.90
2019-04-30T12:19:13.275Z,99.90
2019-04-30T12:21:42.004Z,99.80
2019-04-30T12:24:12.822Z,99.40
2019-04-30T12:26:46.406Z,99.80
2019-04-30T12:29:19.105Z,99.80
2019-04-30T12:31:48.599Z,99.70
2019-04-30T12:34:20.754Z,99.70
2019-04-30T12:36:51.083Z,99.70
2019-04-30T12:39:23.554Z,99.90
2019-04-30T12:41:55.206Z,99.90
2019-04-30T12:44:26.153Z,99.90
2019-04-30T12:46:55.042Z,99.90
2019-04-30T12:49:24.267Z,99.90
2019-04-30T12:52:02.964Z,99.90
2019-04-30T12:54:43.725Z,99.90
2019-04-30T12:57:19.208Z,99.90
2019-04-30T12:59:52.283Z,99.90
2019-04-30T13:02:22.471Z,99.90
2019-04-30T13:04:52.503Z,99.90
2019-04-30T13:07:22.612Z,99.90
2019-04-30T13:09:56.925Z,99.90
2019-04-30T13:12:29.226Z,99.90
2019-04-30T13:15:09.561Z,99.90
2019-04-30T13:17:38.463Z,99.90
2019-04-30T13:20:24.044Z,99.90
2019-04-30T13:22:54.473Z,99.90
2019-04-30T13:25:32.560Z,99.90
2019-04-30T13:28:04.717Z,99.90
2019-04-30T13:30:41.018Z,99.90
2019-04-30T13:33:14.863Z,99.90
2019-04-30T13:35:44.033Z,99.90
2019-04-30T13:38:26.591Z,99.90
2019-04-30T13:41:03.099Z,99.90
2019-04-30T13:43:51.244Z,99.90
2019-04-30T13:46:23.514Z,99.90
2019-04-30T13:49:07.255Z,99.90
2019-04-30T13:51:34.094Z,99.90
2019-04-30T13:54:08.668Z,99.90
2019-04-30T13:56:43.239Z,99.90
2019-04-30T13:59:14.183Z,99.90
2019-04-30T14:01:49.192Z,99.90
2019-04-30T14:04:22.708Z,99.90
2019-04-30T14:07:08.016Z,99.90
2019-04-30T14:09:39.008Z,99.90
2019-04-30T14:12:13.643Z,99.90
2019-04-30T14:14:41.934Z,99.90
2019-04-30T14:17:10.736Z,99.90
2019-04-30T14:19:39.747Z,99.90
2019-04-30T14:22:10.657Z,99.90
2019-04-30T14:24:39.750Z,99.90
2019-04-30T14:27:09.096Z,99.90
2019-04-30T14:29:39.610Z,99.90
2019-04-30T14:32:11.030Z,99.90
2019-04-30T14:34:53.510Z,99.90
2019-04-30T14:37:22.538Z,99.90
2019-04-30T14:39:55.268Z,99.90
2019-04-30T14:42:26.899Z,99.90
2019-04-30T14:44:59.694Z,99.90
2019-04-30T14:47:43.228Z,99.90
2019-04-30T14:50:20.537Z,99.90
2019-04-30T14:52:56.540Z,99.90
2019-04-30T14:55:50.825Z,99.90
2019-04-30T14:58:29.283Z,99.90
2019-04-30T15:01:21.889Z,99.90
2019-04-30T15:03:59.386Z,99.90
2019-04-30T15:06:26.224Z,99.90
2019-04-30T15:08:55.653Z,99.90
2019-04-30T15:11:30.158Z,99.90
2019-04-30T15:14:02.410Z,99.90
2019-04-30T15:16:33.667Z,99.90
2019-04-30T15:19:05.202Z,99.90
2019-04-30T15:21:33.859Z,99.90
2019-04-30T15:24:11.431Z,99.90
2019-04-30T15:26:57.380Z,99.90
2019-04-30T15:29:24.781Z,99.90
2019-04-30T15:31:54.031Z,99.90
2019-04-30T15:34:26.625Z,99.90
2019-04-30T15:37:01.386Z,99.90
2019-04-30T15:39:39.380Z,99.90
2019-04-30T15:42:11.411Z,99.90
2019-04-30T15:44:45.724Z,99.90
2019-04-30T15:47:15.559Z,99.90
2019-04-30T15:49:45.981Z,99.90
2019-04-30T15:52:18.954Z,99.90
2019-04-30T15:54:56.385Z,99.90
2019-04-30T15:57:53.004Z,99.90
2019-04-30T16:00:23.319Z,99.90
2019-04-30T16:03:00.143Z,99.90
2019-04-30T16:05:33.644Z,99.90
2019-04-30T16:08:13.040Z,99.90
2019-04-30T16:11:01.821Z,99.90
2019-04-30T16:13:34.887Z,99.90
2019-04-30T16:16:04.187Z,99.90
2019-04-30T16:18:34.795Z,99.90
2019-04-30T16:21:05.676Z,99.90
2019-04-30T16:23:38.617Z,99.90
2019-04-30T16:26:09.249Z,99.90
2019-04-30T16:28:49.061Z,99.90
2019-04-30T16:31:23.871Z,99.90
2019-04-30T16:33:55.085Z,99.90
2019-04-30T16:36:26.754Z,99.90
2019-04-30T16:38:58.769Z,99.90
2019-04-30T16:41:32.044Z,99.90
2019-04-30T16:44:01.146Z,99.90
2019-04-30T16:46:31.170Z,99.90
2019-04-30T16:49:00.226Z,99.90
2019-04-30T16:51:29.476Z,99.90
2019-04-30T16:53:58.986Z,99.90
2019-04-30T16:56:30.640Z,99.90
2019-04-30T16:59:00.340Z,99.90
2019-04-30T17:01:31.746Z,99.90
2019-04-30T17:04:11.456Z,99.90
2019-04-30T17:06:48.930Z,99.90
2019-04-30T17:09:29.586Z,99.90
2019-04-30T17:12:00.526Z,99.90
2019-04-30T17:14:31.101Z,99.90
2019-04-30T17:17:00.110Z,99.90
2019-04-30T17:19:29.359Z,99.90
2019-04-30T17:22:03.490Z,99.90
2019-04-30T17:24:34.122Z,99.90
2019-04-30T17:27:16.197Z,99.90
2019-04-30T17:29:36.651Z,99.90
2019-04-30T17:32:18.530Z,99.90
2019-04-30T17:34:50.025Z,99.90
2019-04-30T17:37:21.004Z,99.90
2019-04-30T17:39:52.240Z,99.90
2019-04-30T17:42:21.804Z,99.90
2019-04-30T17:44:58.415Z,99.90
2019-04-30T17:47:26.304Z,99.90
2019-04-30T17:49:58.912Z,99.90
2019-04-30T17:52:34.725Z,99.90
2019-04-30T17:55:05.356Z,99.90
2019-04-30T17:57:40.816Z,99.90
2019-04-30T18:00:18.757Z,99.90
2019-04-30T18:02:45.273Z,99.90
2019-04-30T18:05:19.479Z,99.90
2019-04-30T18:07:57.132Z,99.90
2019-04-30T18:10:31.228Z,99.90
2019-04-30T18:13:03.615Z,99.90
2019-04-30T18:15:38.875Z,99.90
2019-04-30T18:18:13.332Z,99.90
2019-04-30T18:20:44.340Z,99.90
2019-04-30T18:23:19.141Z,99.90
2019-04-30T18:25:49.626Z,99.90
2019-04-30T18:28:20.998Z,99.90
2019-04-30T18:30:50.290Z,99.90
2019-04-30T18:33:23.180Z,99.90
2019-04-30T18:35:53.592Z,99.90
2019-04-30T18:38:29.287Z,99.90
2019-04-30T18:40:59.527Z,99.90
2019-04-30T18:43:32.356Z,99.90
2019-04-30T18:46:02.990Z,99.90
2019-04-30T18:48:33.936Z,99.90
2019-04-30T18:51:19.195Z,99.90
2019-04-30T18:53:37.237Z,99.90
2019-04-30T18:56:14.455Z,99.90
2019-04-30T18:58:42.929Z,99.90
2019-04-30T19:01:11.389Z,99.90
2019-04-30T19:03:42.025Z,99.90
2019-04-30T19:06:26.036Z,99.90
2019-04-30T19:09:15.282Z,99.90
2019-04-30T19:12:06.042Z,99.90
2019-04-30T19:14:42.290Z,99.90
2019-04-30T19:17:30.752Z,99.90
2019-04-30T19:20:28.589Z,99.90
2019-04-30T19:22:59.507Z,99.90
2019-04-30T19:25:33.677Z,99.90
2019-04-30T19:28:12.164Z,99.90
2019-04-30T19:30:39.031Z,99.90
2019-04-30T19:33:09.894Z,99.90
2019-04-30T19:35:44.978Z,99.90
2019-04-30T19:38:14.192Z,99.90
2019-04-30T19:40:43.319Z,99.90
2019-04-30T19:43:12.144Z,99.90
2019-04-30T19:45:41.457Z,99.90
2019-04-30T19:48:10.820Z,99.90
2019-04-30T19:50:43.691Z,99.90
2019-04-30T19:53:22.017Z,99.90
2019-04-30T19:55:52.510Z,99.90
2019-04-30T19:58:29.375Z,99.90
2019-04-30T20:00:56.773Z,99.90
2019-04-30T20:03:29.302Z,99.90
2019-04-30T20:06:00.691Z,99.90
2019-04-30T20:08:34.299Z,99.90
2019-04-30T20:11:14.971Z,99.90
2019-04-30T20:13:42.857Z,99.90
2019-04-30T20:16:15.033Z,99.90
2019-04-30T20:18:51.089Z,99.90
2019-04-30T20:21:28.097Z,99.90
2019-04-30T20:23:58.793Z,99.90
2019-04-30T20:26:31.544Z,99.90
2019-04-30T20:29:11.684Z,99.90
2019-04-30T20:31:48.695Z,99.90
2019-04-30T20:34:29.265Z,99.90
2019-04-30T20:36:52.573Z,99.90
2019-04-30T20:39:31.446Z,99.90
2019-04-30T20:42:03.341Z,99.90
2019-04-30T20:44:35.673Z,99.90
2019-04-30T20:47:09.087Z,99.90
2019-04-30T20:49:42.662Z,99.90
2019-04-30T20:52:15.693Z,99.90
2019-04-30T20:54:48.855Z,99.90
2019-04-30T20:57:24.122Z,99.90
2019-04-30T21:00:03.880Z,99.90
2019-04-30T21:02:39.513Z,99.90
2019-04-30T21:05:12.816Z,99.90
2019-04-30T21:07:56.894Z,99.90
2019-04-30T21:10:29.731Z,99.90
2019-04-30T21:13:04.091Z,99.90
2019-04-30T21:15:40.324Z,99.90
2019-04-30T21:18:12.277Z,99.90
2019-04-30T21:20:41.398Z,99.90
2019-04-30T21:23:10.418Z,99.90
2019-04-30T21:25:42.278Z,99.90
2019-04-30T21:28:14.309Z,99.90
2019-04-30T21:30:47.295Z,99.90
2019-04-30T21:33:20.480Z,99.90
2019-04-30T21:36:00.207Z,99.90
2019-04-30T21:38:29.333Z,99.90
2019-04-30T21:41:01.368Z,99.90
2019-04-30T21:43:30.927Z,99.90
2019-04-30T21:46:00.169Z,99.90
2019-04-30T21:48:30.141Z,99.90
2019-04-30T21:50:59.379Z,99.90
2019-04-30T21:53:29.471Z,99.90
2019-04-30T21:55:58.703Z,99.90
2019-04-30T21:58:29.219Z,99.90
2019-04-30T22:01:08.879Z,99.90
2019-04-30T22:03:40.859Z,99.90
2019-04-30T22:06:10.645Z,99.90
2019-04-30T22:08:44.049Z,99.90
2019-04-30T22:11:19.777Z,99.90
2019-04-30T22:13:52.674Z,99.90
2019-04-30T22:16:32.216Z,99.90
2019-04-30T22:19:06.260Z,99.90
2019-04-30T22:21:36.399Z,99.90
2019-04-30T22:24:05.953Z,99.90
2019-04-30T22:26:35.487Z,99.90
2019-04-30T22:29:04.694Z,99.90
2019-04-30T22:31:35.722Z,99.90
2019-04-30T22:34:10.019Z,99.90
2019-04-30T22:36:43.433Z,99.90
2019-04-30T22:39:30.094Z,99.90
2019-04-30T22:42:02.716Z,99.90
2019-04-30T22:44:33.847Z,99.90
2019-04-30T22:47:03.191Z,99.90
2019-04-30T22:49:37.979Z,99.90
2019-04-30T22:52:07.977Z,99.90
2019-04-30T22:54:38.011Z,99.90
2019-04-30T22:57:12.843Z,99.90
2019-04-30T22:59:49.961Z,99.90
2019-04-30T23:02:20.247Z,99.90
2019-04-30T23:04:50.878Z,99.90
2019-04-30T23:07:22.979Z,99.90
2019-04-30T23:09:53.746Z,99.90
2019-04-30T23:12:25.627Z,99.90
2019-04-30T23:14:58.711Z,99.90
2019-04-30T23:17:28.225Z,99.90
2019-04-30T23:19:58.745Z,99.90
2019-04-30T23:22:30.708Z,99.90
2019-04-30T23:25:02.778Z,99.90
2019-04-30T23:27:32.007Z,99.90
2019-04-30T23:30:07.006Z,99.90
2019-04-30T23:32:35.949Z,99.90
2019-04-30T23:35:05.978Z,99.90
2019-04-30T23:37:37.822Z,99.90
2019-04-30T23:40:42.655Z,99.90
2019-04-30T23:43:17.175Z,99.90
2019-04-30T23:45:47.409Z,99.90
2019-04-30T23:48:16.940Z,99.90
2019-04-30T23:50:52.858Z,99.90
2019-04-30T23:53:24.760Z,99.90
2019-04-30T23:55:58.005Z,99.90
2019-04-30T23:58:28.943Z,99.90
